sensor_id;sensor_type;location;lat;lon;timestamp;pressure;altitude;pressure_sealevel;temperature;humidity
21877;BME280;11103;43.788;23.710;2023-02-04T00:01:58;147761.94;;;5.51;100.00
21877;BME280;11103;43.788;23.710;2023-02-04T00:04:23;147755.56;;;5.49;100.00
21877;BME280;11103;43.788;23.710;2023-02-04T00:06:49;147749.19;;;5.46;100.00
21877;BME280;11103;43.788;23.710;2023-02-04T00:09:14;147746.63;;;5.45;100.00
21877;BME280;11103;43.788;23.710;2023-02-04T00:11:41;147744.06;;;5.44;100.00
21877;BME280;11103;43.788;23.710;2023-02-04T00:14:06;147750.44;;;5.47;100.00
21877;BME280;11103;43.788;23.710;2023-02-04T00:16:31;147753.00;;;5.48;100.00
21877;BME280;11103;43.788;23.710;2023-02-04T00:18:57;147759.38;;;5.50;100.00
21877;BME280;11103;43.788;23.710;2023-02-04T00:21:22;147767.03;;;5.53;100.00
21877;BME280;11103;43.788;23.710;2023-02-04T00:23:48;147792.50;;;5.63;100.00
21877;BME280;11103;43.788;23.710;2023-02-04T00:26:15;147812.88;;;5.71;100.00
21877;BME280;11103;43.788;23.710;2023-02-04T00:28:40;147828.19;;;5.77;100.00
21877;BME280;11103;43.788;23.710;2023-02-04T00:31:06;147851.19;;;5.86;100.00
21877;BME280;11103;43.788;23.710;2023-02-04T00:33:31;147874.09;;;5.95;100.00
21877;BME280;11103;43.788;23.710;2023-02-04T00:35:57;147880.47;;;5.98;100.00
21877;BME280;11103;43.788;23.710;2023-02-04T00:38:22;147895.75;;;6.04;100.00
21877;BME280;11103;43.788;23.710;2023-02-04T00:40:48;147899.63;;;6.06;100.00
21877;BME280;11103;43.788;23.710;2023-02-04T00:43:13;147902.13;;;6.07;100.00
21877;BME280;11103;43.788;23.710;2023-02-04T00:45:38;147912.34;;;6.11;100.00
21877;BME280;11103;43.788;23.710;2023-02-04T00:48:04;147912.34;;;6.11;100.00
21877;BME280;11103;43.788;23.710;2023-02-04T00:50:29;147914.88;;;6.12;100.00
21877;BME280;11103;43.788;23.710;2023-02-04T00:52:55;147925.09;;;6.16;100.00
21877;BME280;11103;43.788;23.710;2023-02-04T00:55:20;147928.91;;;6.17;100.00
21877;BME280;11103;43.788;23.710;2023-02-04T00:57:46;147923.81;;;6.15;100.00
21877;BME280;11103;43.788;23.710;2023-02-04T01:00:12;147925.09;;;6.16;100.00
21877;BME280;11103;43.788;23.710;2023-02-04T01:02:38;147932.75;;;6.19;100.00
21877;BME280;11103;43.788;23.710;2023-02-04T01:05:06;147932.75;;;6.19;100.00
21877;BME280;11103;43.788;23.710;2023-02-04T01:07:31;147953.16;;;6.27;100.00
21877;BME280;11103;43.788;23.710;2023-02-04T01:09:57;147968.47;;;6.33;100.00
21877;BME280;11103;43.788;23.710;2023-02-04T01:12:22;147985.00;;;6.39;100.00
21877;BME280;11103;43.788;23.710;2023-02-04T01:14:50;148001.59;;;6.46;100.00
21877;BME280;11103;43.788;23.710;2023-02-04T01:17:15;148013.06;;;6.50;100.00
21877;BME280;11103;43.788;23.710;2023-02-04T01:19:41;148034.75;;;6.59;100.00
21877;BME280;11103;43.788;23.710;2023-02-04T01:22:07;148033.47;;;6.58;100.00
21877;BME280;11103;43.788;23.710;2023-02-04T01:24:32;148029.66;;;6.57;100.00
21877;BME280;11103;43.788;23.710;2023-02-04T01:26:58;148030.94;;;6.57;100.00
21877;BME280;11103;43.788;23.710;2023-02-04T01:29:23;148019.44;;;6.53;100.00
21877;BME280;11103;43.788;23.710;2023-02-04T01:31:48;148006.69;;;6.48;100.00
21877;BME280;11103;43.788;23.710;2023-02-04T01:34:14;148006.69;;;6.48;100.00
21877;BME280;11103;43.788;23.710;2023-02-04T01:36:39;147995.22;;;6.43;100.00
21877;BME280;11103;43.788;23.710;2023-02-04T01:39:05;147979.91;;;6.37;100.00
21877;BME280;11103;43.788;23.710;2023-02-04T01:41:30;147983.72;;;6.39;100.00
21877;BME280;11103;43.788;23.710;2023-02-04T01:43:57;147992.66;;;6.42;100.00
21877;BME280;11103;43.788;23.710;2023-02-04T01:46:22;147990.09;;;6.41;100.00
21877;BME280;11103;43.788;23.710;2023-02-04T01:48:48;147991.38;;;6.42;100.00
21877;BME280;11103;43.788;23.710;2023-02-04T01:51:16;147986.28;;;6.40;100.00
21877;BME280;11103;43.788;23.710;2023-02-04T01:53:44;147988.84;;;6.41;100.00
21877;BME280;11103;43.788;23.710;2023-02-04T01:56:21;147981.19;;;6.38;100.00
21877;BME280;11103;43.788;23.710;2023-02-04T01:58:47;147973.53;;;6.35;100.00
21877;BME280;11103;43.788;23.710;2023-02-04T02:01:15;147965.88;;;6.32;100.00
21877;BME280;11103;43.788;23.710;2023-02-04T02:03:57;147960.81;;;6.30;100.00
21877;BME280;11103;43.788;23.710;2023-02-04T02:06:23;147930.19;;;6.18;100.00
21877;BME280;11103;43.788;23.710;2023-02-04T02:08:48;147937.84;;;6.21;100.00
21877;BME280;11103;43.788;23.710;2023-02-04T02:11:14;147934.03;;;6.19;100.00
21877;BME280;11103;43.788;23.710;2023-02-04T02:13:40;147930.19;;;6.18;100.00
21877;BME280;11103;43.788;23.710;2023-02-04T02:16:05;147940.41;;;6.22;100.00
21877;BME280;11103;43.788;23.710;2023-02-04T02:18:31;147960.81;;;6.30;100.00
21877;BME280;11103;43.788;23.710;2023-02-04T02:20:58;147981.19;;;6.38;100.00
21877;BME280;11103;43.788;23.710;2023-02-04T02:23:53;148011.78;;;6.50;100.00
21877;BME280;11103;43.788;23.710;2023-02-04T02:26:22;148038.56;;;6.60;100.00
21877;BME280;11103;43.788;23.710;2023-02-04T02:28:49;148041.13;;;6.62;100.00
21877;BME280;11103;43.788;23.710;2023-02-04T02:31:17;148032.19;;;6.58;100.00
21877;BME280;11103;43.788;23.710;2023-02-04T02:33:44;148047.50;;;6.64;100.00
21877;BME280;11103;43.788;23.710;2023-02-04T02:36:10;148032.19;;;6.58;100.00
21877;BME280;11103;43.788;23.710;2023-02-04T02:38:36;148032.19;;;6.58;100.00
21877;BME280;11103;43.788;23.710;2023-02-04T02:41:02;148033.47;;;6.58;100.00
21877;BME280;11103;43.788;23.710;2023-02-04T02:43:28;148007.97;;;6.48;100.00
21877;BME280;11103;43.788;23.710;2023-02-04T02:45:56;147988.84;;;6.41;100.00
21877;BME280;11103;43.788;23.710;2023-02-04T02:48:22;147986.28;;;6.40;100.00
21877;BME280;11103;43.788;23.710;2023-02-04T02:50:48;147993.94;;;6.43;100.00
21877;BME280;11103;43.788;23.710;2023-02-04T02:53:16;148004.13;;;6.47;100.00
21877;BME280;11103;43.788;23.710;2023-02-04T02:55:43;148022.00;;;6.54;100.00
21877;BME280;11103;43.788;23.710;2023-02-04T02:58:28;148028.38;;;6.56;100.00
21877;BME280;11103;43.788;23.710;2023-02-04T03:00:57;148022.00;;;6.54;100.00
21877;BME280;11103;43.788;23.710;2023-02-04T03:03:29;148019.44;;;6.53;100.00
21877;BME280;11103;43.788;23.710;2023-02-04T03:06:01;148015.63;;;6.51;100.00
21877;BME280;11103;43.788;23.710;2023-02-04T03:08:28;147986.28;;;6.40;100.00
21877;BME280;11103;43.788;23.710;2023-02-04T03:10:54;147974.81;;;6.35;100.00
21877;BME280;11103;43.788;23.710;2023-02-04T03:13:20;147970.97;;;6.34;100.00
21877;BME280;11103;43.788;23.710;2023-02-04T03:15:47;147965.88;;;6.32;100.00
21877;BME280;11103;43.788;23.710;2023-02-04T03:18:15;147965.88;;;6.32;100.00
21877;BME280;11103;43.788;23.710;2023-02-04T03:20:42;147965.88;;;6.32;100.00
21877;BME280;11103;43.788;23.710;2023-02-04T03:23:09;147960.81;;;6.30;100.00
21877;BME280;11103;43.788;23.710;2023-02-04T03:25:35;147963.31;;;6.31;100.00
21877;BME280;11103;43.788;23.710;2023-02-04T03:28:01;147983.72;;;6.39;100.00
21877;BME280;11103;43.788;23.710;2023-02-04T03:30:26;147996.50;;;6.44;100.00
21877;BME280;11103;43.788;23.710;2023-02-04T03:32:52;148001.59;;;6.46;100.00
21877;BME280;11103;43.788;23.710;2023-02-04T03:35:19;147997.75;;;6.44;100.00
21877;BME280;11103;43.788;23.710;2023-02-04T03:37:45;148014.34;;;6.51;100.00
21877;BME280;11103;43.788;23.710;2023-02-04T03:40:11;148011.78;;;6.50;100.00
21877;BME280;11103;43.788;23.710;2023-02-04T03:42:36;148024.53;;;6.55;100.00
21877;BME280;11103;43.788;23.710;2023-02-04T03:45:02;148024.53;;;6.55;100.00
21877;BME280;11103;43.788;23.710;2023-02-04T03:47:27;148011.78;;;6.50;100.00
21877;BME280;11103;43.788;23.710;2023-02-04T03:49:53;148009.25;;;6.49;100.00
21877;BME280;11103;43.788;23.710;2023-02-04T03:52:19;147999.03;;;6.45;100.00
21877;BME280;11103;43.788;23.710;2023-02-04T03:54:45;147999.03;;;6.45;100.00
21877;BME280;11103;43.788;23.710;2023-02-04T03:57:10;147988.84;;;6.41;100.00
21877;BME280;11103;43.788;23.710;2023-02-04T03:59:36;147974.81;;;6.35;100.00
21877;BME280;11103;43.788;23.710;2023-02-04T04:02:01;147978.63;;;6.37;100.00
21877;BME280;11103;43.788;23.710;2023-02-04T04:04:27;147987.56;;;6.40;100.00
21877;BME280;11103;43.788;23.710;2023-02-04T04:06:52;147973.53;;;6.35;100.00
21877;BME280;11103;43.788;23.710;2023-02-04T04:09:17;147962.09;;;6.30;100.00
21877;BME280;11103;43.788;23.710;2023-02-04T04:11:43;147962.09;;;6.30;100.00
21877;BME280;11103;43.788;23.710;2023-02-04T04:14:08;147967.19;;;6.32;100.00
21877;BME280;11103;43.788;23.710;2023-02-04T04:16:34;147950.59;;;6.26;100.00
21877;BME280;11103;43.788;23.710;2023-02-04T04:18:59;147926.38;;;6.16;100.00
21877;BME280;11103;43.788;23.710;2023-02-04T04:21:24;147940.41;;;6.22;100.00
21877;BME280;11103;43.788;23.710;2023-02-04T04:23:50;147930.19;;;6.18;100.00
21877;BME280;11103;43.788;23.710;2023-02-04T04:26:15;147914.88;;;6.12;100.00
21877;BME280;11103;43.788;23.710;2023-02-04T04:28:41;147909.78;;;6.10;100.00
21877;BME280;11103;43.788;23.710;2023-02-04T04:31:08;147891.97;;;6.03;100.00
21877;BME280;11103;43.788;23.710;2023-02-04T04:33:33;147895.75;;;6.04;100.00
21877;BME280;11103;43.788;23.710;2023-02-04T04:35:59;147897.06;;;6.05;100.00
21877;BME280;11103;43.788;23.710;2023-02-04T04:38:24;147880.47;;;5.98;100.00
21877;BME280;11103;43.788;23.710;2023-02-04T04:40:50;147870.28;;;5.94;100.00
21877;BME280;11103;43.788;23.710;2023-02-04T04:43:15;147867.72;;;5.93;100.00
21877;BME280;11103;43.788;23.710;2023-02-04T04:45:40;147853.69;;;5.87;100.00
21877;BME280;11103;43.788;23.710;2023-02-04T04:48:06;147870.28;;;5.94;100.00
21877;BME280;11103;43.788;23.710;2023-02-04T04:50:31;147872.84;;;5.95;100.00
21877;BME280;11103;43.788;23.710;2023-02-04T04:52:56;147870.28;;;5.94;100.00
21877;BME280;11103;43.788;23.710;2023-02-04T04:55:22;147869.00;;;5.93;100.00
21877;BME280;11103;43.788;23.710;2023-02-04T04:57:47;147883.03;;;5.99;100.00
21877;BME280;11103;43.788;23.710;2023-02-04T05:00:18;147861.34;;;5.90;100.00
21877;BME280;11103;43.788;23.710;2023-02-04T05:02:44;147860.06;;;5.90;100.00
21877;BME280;11103;43.788;23.710;2023-02-04T05:05:10;147858.84;;;5.89;100.00
21877;BME280;11103;43.788;23.710;2023-02-04T05:07:35;147856.25;;;5.88;100.00
21877;BME280;11103;43.788;23.710;2023-02-04T05:10:01;147843.47;;;5.83;100.00
21877;BME280;11103;43.788;23.710;2023-02-04T05:12:27;147834.53;;;5.80;100.00
21877;BME280;11103;43.788;23.710;2023-02-04T05:14:52;147818.00;;;5.73;100.00
21877;BME280;11103;43.788;23.710;2023-02-04T05:17:18;147830.75;;;5.78;100.00
21877;BME280;11103;43.788;23.710;2023-02-04T05:19:43;147831.97;;;5.79;100.00
21877;BME280;11103;43.788;23.710;2023-02-04T05:22:09;147843.47;;;5.83;100.00
21877;BME280;11103;43.788;23.710;2023-02-04T05:24:34;147854.97;;;5.88;100.00
21877;BME280;11103;43.788;23.710;2023-02-04T05:26:59;147857.56;;;5.89;100.00
21877;BME280;11103;43.788;23.710;2023-02-04T05:29:25;147871.56;;;5.94;100.00
21877;BME280;11103;43.788;23.710;2023-02-04T05:31:50;147866.44;;;5.92;100.00
21877;BME280;11103;43.788;23.710;2023-02-04T05:34:16;147886.88;;;6.01;100.00
21877;BME280;11103;43.788;23.710;2023-02-04T05:36:41;147902.13;;;6.07;100.00
21877;BME280;11103;43.788;23.710;2023-02-04T05:39:07;147886.88;;;6.01;100.00
21877;BME280;11103;43.788;23.710;2023-02-04T05:41:32;147860.06;;;5.90;100.00
21877;BME280;11103;43.788;23.710;2023-02-04T05:43:57;147894.47;;;6.04;100.00
21877;BME280;11103;43.788;23.710;2023-02-04T05:46:23;147907.28;;;6.09;100.00
21877;BME280;11103;43.788;23.710;2023-02-04T05:48:48;147909.78;;;6.10;100.00
21877;BME280;11103;43.788;23.710;2023-02-04T05:51:14;147847.34;;;5.85;100.00
21877;BME280;11103;43.788;23.710;2023-02-04T05:53:39;147883.03;;;5.99;100.00
21877;BME280;11103;43.788;23.710;2023-02-04T05:56:05;147894.47;;;6.04;100.00
21877;BME280;11103;43.788;23.710;2023-02-04T05:58:30;147895.75;;;6.04;100.00
21877;BME280;11103;43.788;23.710;2023-02-04T06:01:01;147883.03;;;5.99;100.00
21877;BME280;11103;43.788;23.710;2023-02-04T06:03:28;147902.13;;;6.07;100.00
21877;BME280;11103;43.788;23.710;2023-02-04T06:05:54;147907.28;;;6.09;100.00
21877;BME280;11103;43.788;23.710;2023-02-04T06:08:20;147918.72;;;6.13;100.00
21877;BME280;11103;43.788;23.710;2023-02-04T06:10:46;147921.28;;;6.14;100.00
21877;BME280;11103;43.788;23.710;2023-02-04T06:13:11;147921.28;;;6.14;100.00
21877;BME280;11103;43.788;23.710;2023-02-04T06:15:37;147918.72;;;6.13;100.00
21877;BME280;11103;43.788;23.710;2023-02-04T06:18:02;147962.09;;;6.30;100.00
21877;BME280;11103;43.788;23.710;2023-02-04T06:20:28;147983.72;;;6.39;100.00
21877;BME280;11103;43.788;23.710;2023-02-04T06:22:53;148011.78;;;6.50;100.00
21877;BME280;11103;43.788;23.710;2023-02-04T06:25:20;148022.00;;;6.54;100.00
21877;BME280;11103;43.788;23.710;2023-02-04T06:27:45;148067.91;;;6.72;100.00
21877;BME280;11103;43.788;23.710;2023-02-04T06:30:11;148138.06;;;7.00;99.21
21877;BME280;11103;43.788;23.710;2023-02-04T06:32:37;148164.84;;;7.10;98.13
21877;BME280;11103;43.788;23.710;2023-02-04T06:35:02;148223.56;;;7.34;96.25
21877;BME280;11103;43.788;23.710;2023-02-04T06:37:28;148232.47;;;7.37;94.88
21877;BME280;11103;43.788;23.710;2023-02-04T06:39:53;148287.34;;;7.59;93.44
21877;BME280;11103;43.788;23.710;2023-02-04T06:42:19;148303.97;;;7.65;93.02
21877;BME280;11103;43.788;23.710;2023-02-04T06:44:45;148320.53;;;7.72;91.12
21877;BME280;11103;43.788;23.710;2023-02-04T06:47:10;148323.09;;;7.73;90.10
21877;BME280;11103;43.788;23.710;2023-02-04T06:49:36;148306.50;;;7.66;89.98
21877;BME280;11103;43.788;23.710;2023-02-04T06:52:01;148292.50;;;7.61;90.58
21877;BME280;11103;43.788;23.710;2023-02-04T06:54:26;148261.84;;;7.49;91.10
21877;BME280;11103;43.788;23.710;2023-02-04T06:56:52;148254.19;;;7.46;90.39
21877;BME280;11103;43.788;23.710;2023-02-04T06:59:17;148242.72;;;7.41;90.86
21877;BME280;11103;43.788;23.710;2023-02-04T07:01:43;148226.09;;;7.35;92.18
21877;BME280;11103;43.788;23.710;2023-02-04T07:04:09;148221.00;;;7.33;91.62
21877;BME280;11103;43.788;23.710;2023-02-04T07:06:34;148205.69;;;7.27;91.55
21877;BME280;11103;43.788;23.710;2023-02-04T07:09:00;148192.94;;;7.22;92.29
21877;BME280;11103;43.788;23.710;2023-02-04T07:11:25;148190.34;;;7.20;91.96
21877;BME280;11103;43.788;23.710;2023-02-04T07:13:51;148180.16;;;7.16;92.54
21877;BME280;11103;43.788;23.710;2023-02-04T07:16:16;148192.94;;;7.22;91.94
21877;BME280;11103;43.788;23.710;2023-02-04T07:18:41;148196.72;;;7.23;91.38
21877;BME280;11103;43.788;23.710;2023-02-04T07:21:07;148203.09;;;7.26;90.96
21877;BME280;11103;43.788;23.710;2023-02-04T07:23:32;148200.59;;;7.25;90.76
21877;BME280;11103;43.788;23.710;2023-02-04T07:25:57;148196.72;;;7.23;90.92
21877;BME280;11103;43.788;23.710;2023-02-04T07:28:23;148187.84;;;7.19;90.91
21877;BME280;11103;43.788;23.710;2023-02-04T07:30:49;148195.50;;;7.23;89.71
21877;BME280;11103;43.788;23.710;2023-02-04T07:33:14;148195.50;;;7.23;90.42
21877;BME280;11103;43.788;23.710;2023-02-04T07:35:40;148205.69;;;7.27;89.89
21877;BME280;11103;43.788;23.710;2023-02-04T07:38:05;148246.53;;;7.43;88.59
21877;BME280;11103;43.788;23.710;2023-02-04T07:40:31;148268.22;;;7.51;88.33
21877;BME280;11103;43.788;23.710;2023-02-04T07:42:57;148315.44;;;7.70;86.86
21877;BME280;11103;43.788;23.710;2023-02-04T07:45:23;148371.63;;;7.92;86.13
21877;BME280;11103;43.788;23.710;2023-02-04T07:47:48;148429.09;;;8.15;85.05
21877;BME280;11103;43.788;23.710;2023-02-04T07:50:14;148471.31;;;8.31;84.01
21877;BME280;11103;43.788;23.710;2023-02-04T07:52:40;148521.09;;;8.51;82.28
21877;BME280;11103;43.788;23.710;2023-02-04T07:55:07;148518.56;;;8.50;81.75
21877;BME280;11103;43.788;23.710;2023-02-04T07:57:32;148553.06;;;8.64;81.28
21877;BME280;11103;43.788;23.710;2023-02-04T07:59:58;148558.16;;;8.66;80.08
21877;BME280;11103;43.788;23.710;2023-02-04T08:02:23;148555.59;;;8.65;80.25
21877;BME280;11103;43.788;23.710;2023-02-04T08:04:49;148530.03;;;8.55;80.13
21877;BME280;11103;43.788;23.710;2023-02-04T08:07:14;148535.16;;;8.57;80.65
21877;BME280;11103;43.788;23.710;2023-02-04T08:09:40;148542.81;;;8.60;79.79
21877;BME280;11103;43.788;23.710;2023-02-04T08:12:05;148561.97;;;8.67;80.98
21877;BME280;11103;43.788;23.710;2023-02-04T08:14:30;148533.84;;;8.56;80.46
21877;BME280;11103;43.788;23.710;2023-02-04T08:16:56;148513.41;;;8.48;81.80
21877;BME280;11103;43.788;23.710;2023-02-04T08:19:21;148524.94;;;8.53;81.58
21877;BME280;11103;43.788;23.710;2023-02-04T08:21:47;148526.25;;;8.53;82.65
21877;BME280;11103;43.788;23.710;2023-02-04T08:24:14;148501.94;;;8.44;83.46
21877;BME280;11103;43.788;23.710;2023-02-04T08:26:41;148527.47;;;8.54;83.48
21877;BME280;11103;43.788;23.710;2023-02-04T08:29:07;148527.47;;;8.54;84.06
21877;BME280;11103;43.788;23.710;2023-02-04T08:31:32;148568.34;;;8.70;83.70
21877;BME280;11103;43.788;23.710;2023-02-04T08:33:57;148599.03;;;8.82;82.79
21877;BME280;11103;43.788;23.710;2023-02-04T08:36:23;148633.56;;;8.95;80.86
21877;BME280;11103;43.788;23.710;2023-02-04T08:38:48;148632.25;;;8.95;80.67
21877;BME280;11103;43.788;23.710;2023-02-04T08:41:14;148645.03;;;9.00;79.96
21877;BME280;11103;43.788;23.710;2023-02-04T08:43:39;148652.72;;;9.03;80.12
21877;BME280;11103;43.788;23.710;2023-02-04T08:46:05;148662.97;;;9.07;78.73
21877;BME280;11103;43.788;23.710;2023-02-04T08:48:30;148701.28;;;9.22;78.52
21877;BME280;11103;43.788;23.710;2023-02-04T08:50:56;148710.25;;;9.26;78.50
21877;BME280;11103;43.788;23.710;2023-02-04T08:53:21;148701.28;;;9.22;78.28
21877;BME280;11103;43.788;23.710;2023-02-04T08:55:47;148693.63;;;9.19;77.46
21877;BME280;11103;43.788;23.710;2023-02-04T08:58:12;148719.22;;;9.29;78.28
21877;BME280;11103;43.788;23.710;2023-02-04T09:00:37;148746.06;;;9.40;77.63
21877;BME280;11103;43.788;23.710;2023-02-04T09:03:03;148763.94;;;9.47;77.74
21877;BME280;11103;43.788;23.710;2023-02-04T09:05:28;148770.31;;;9.49;77.63
21877;BME280;11103;43.788;23.710;2023-02-04T09:07:54;148788.25;;;9.56;76.40
21877;BME280;11103;43.788;23.710;2023-02-04T09:10:19;148776.72;;;9.52;76.58
21877;BME280;11103;43.788;23.710;2023-02-04T09:12:44;148767.75;;;9.48;76.29
21877;BME280;11103;43.788;23.710;2023-02-04T09:15:10;148760.13;;;9.45;77.29
21877;BME280;11103;43.788;23.710;2023-02-04T09:17:36;148783.09;;;9.54;77.31
21877;BME280;11103;43.788;23.710;2023-02-04T09:20:04;148790.78;;;9.57;77.66
21877;BME280;11103;43.788;23.710;2023-02-04T09:22:30;148785.69;;;9.55;77.55
21877;BME280;11103;43.788;23.710;2023-02-04T09:24:55;148790.78;;;9.57;77.35
21877;BME280;11103;43.788;23.710;2023-02-04T09:27:20;148808.72;;;9.65;77.07
21877;BME280;11103;43.788;23.710;2023-02-04T09:29:46;148818.91;;;9.69;76.10
21877;BME280;11103;43.788;23.710;2023-02-04T09:32:12;148806.13;;;9.64;76.46
21877;BME280;11103;43.788;23.710;2023-02-04T09:34:37;148808.72;;;9.65;76.14
21877;BME280;11103;43.788;23.710;2023-02-04T09:37:02;148821.50;;;9.70;75.89
21877;BME280;11103;43.788;23.710;2023-02-04T09:39:28;148833.00;;;9.74;76.42
21877;BME280;11103;43.788;23.710;2023-02-04T09:41:53;148829.19;;;9.73;75.14
21877;BME280;11103;43.788;23.710;2023-02-04T09:44:22;148824.03;;;9.71;75.95
21877;BME280;11103;43.788;23.710;2023-02-04T09:46:50;148789.50;;;9.57;75.61
21877;BME280;11103;43.788;23.710;2023-02-04T09:49:17;148739.66;;;9.37;77.10
21877;BME280;11103;43.788;23.710;2023-02-04T09:51:42;148772.91;;;9.50;78.83
21877;BME280;11103;43.788;23.710;2023-02-04T09:56:38;148844.47;;;9.79;76.00
21877;BME280;11103;43.788;23.710;2023-02-04T09:59:34;148821.50;;;9.70;76.47
21877;BME280;11103;43.788;23.710;2023-02-04T10:02:01;148839.38;;;9.77;75.27
21877;BME280;11103;43.788;23.710;2023-02-04T10:04:27;148841.97;;;9.78;75.08
21877;BME280;11103;43.788;23.710;2023-02-04T10:06:54;148867.53;;;9.88;74.98
21877;BME280;11103;43.788;23.710;2023-02-04T10:09:22;148881.59;;;9.93;74.51
21877;BME280;11103;43.788;23.710;2023-02-04T10:11:48;148916.13;;;10.07;74.89
21877;BME280;11103;43.788;23.710;2023-02-04T10:14:21;148917.44;;;10.07;74.72
21877;BME280;11103;43.788;23.710;2023-02-04T10:16:53;148890.56;;;9.97;74.49
21877;BME280;11103;43.788;23.710;2023-02-04T10:19:19;148875.22;;;9.91;75.09
21877;BME280;11103;43.788;23.710;2023-02-04T10:21:45;148848.34;;;9.80;74.97
21877;BME280;11103;43.788;23.710;2023-02-04T10:24:22;148816.34;;;9.68;75.87
21877;BME280;11103;43.788;23.710;2023-02-04T10:26:51;148818.91;;;9.69;76.33
21877;BME280;11103;43.788;23.710;2023-02-04T10:29:19;148826.59;;;9.72;76.57
21877;BME280;11103;43.788;23.710;2023-02-04T10:31:47;148831.69;;;9.74;75.52
21877;BME280;11103;43.788;23.710;2023-02-04T10:34:23;148852.16;;;9.82;75.59
21877;BME280;11103;43.788;23.710;2023-02-04T10:36:56;148916.13;;;10.07;75.05
21877;BME280;11103;43.788;23.710;2023-02-04T10:39:27;148967.38;;;10.27;74.07
21877;BME280;11103;43.788;23.710;2023-02-04T10:41:58;148975.00;;;10.30;73.92
21877;BME280;11103;43.788;23.710;2023-02-04T10:44:31;148921.25;;;10.09;72.86
21877;BME280;11103;43.788;23.710;2023-02-04T10:47:05;148885.41;;;9.95;73.32
21877;BME280;11103;43.788;23.710;2023-02-04T10:49:31;148882.88;;;9.94;73.61
21877;BME280;11103;43.788;23.710;2023-02-04T10:51:57;148836.81;;;9.76;74.22
21877;BME280;11103;43.788;23.710;2023-02-04T10:54:26;148807.44;;;9.64;75.10
21877;BME280;11103;43.788;23.710;2023-02-04T10:59:52;148739.66;;;9.37;77.15
21877;BME280;11103;43.788;23.710;2023-02-04T11:04:56;148757.53;;;9.44;76.93
21877;BME280;11103;43.788;23.710;2023-02-04T11:07:22;148775.44;;;9.51;77.35
21877;BME280;11103;43.788;23.710;2023-02-04T11:09:48;148783.09;;;9.54;77.77
21877;BME280;11103;43.788;23.710;2023-02-04T11:12:21;148786.97;;;9.56;77.81
21877;BME280;11103;43.788;23.710;2023-02-04T11:14:57;148766.50;;;9.48;77.68
21877;BME280;11103;43.788;23.710;2023-02-04T11:17:30;148761.34;;;9.46;78.52
21877;BME280;11103;43.788;23.710;2023-02-04T11:19:55;148770.31;;;9.49;78.84
21877;BME280;11103;43.788;23.710;2023-02-04T11:22:40;148834.28;;;9.75;77.37
21877;BME280;11103;43.788;23.710;2023-02-04T11:25:32;148783.09;;;9.54;77.11
21877;BME280;11103;43.788;23.710;2023-02-04T11:27:58;148767.75;;;9.48;77.25
21877;BME280;11103;43.788;23.710;2023-02-04T11:30:31;148719.22;;;9.29;77.79
21877;BME280;11103;43.788;23.710;2023-02-04T11:33:03;148715.34;;;9.28;78.20
21877;BME280;11103;43.788;23.710;2023-02-04T11:35:29;148707.69;;;9.25;78.40
21877;BME280;11103;43.788;23.710;2023-02-04T11:37:56;148721.75;;;9.30;79.21
21877;BME280;11103;43.788;23.710;2023-02-04T11:40:31;148711.53;;;9.26;79.01
21877;BME280;11103;43.788;23.710;2023-02-04T11:43:02;148698.75;;;9.21;79.40
21877;BME280;11103;43.788;23.710;2023-02-04T11:47:56;148705.16;;;9.24;79.51
21877;BME280;11103;43.788;23.710;2023-02-04T11:50:31;148701.28;;;9.22;78.92
21877;BME280;11103;43.788;23.710;2023-02-04T11:52:58;148665.47;;;9.08;78.98
21877;BME280;11103;43.788;23.710;2023-02-04T11:55:26;148674.44;;;9.12;78.44
21877;BME280;11103;43.788;23.710;2023-02-04T11:57:54;148693.63;;;9.19;79.55
21877;BME280;11103;43.788;23.710;2023-02-04T12:00:29;148683.41;;;9.15;80.57
21877;BME280;11103;43.788;23.710;2023-02-04T12:03:03;148688.50;;;9.17;80.35
21877;BME280;11103;43.788;23.710;2023-02-04T12:05:42;148700.00;;;9.22;79.43
21877;BME280;11103;43.788;23.710;2023-02-04T12:10:57;148710.25;;;9.26;79.85
21877;BME280;11103;43.788;23.710;2023-02-04T12:13:24;148719.22;;;9.29;78.52
21877;BME280;11103;43.788;23.710;2023-02-04T12:16:03;148684.69;;;9.16;78.79
21877;BME280;11103;43.788;23.710;2023-02-04T12:18:29;148674.44;;;9.12;79.12
21877;BME280;11103;43.788;23.710;2023-02-04T12:20:56;148654.00;;;9.04;80.18
21877;BME280;11103;43.788;23.710;2023-02-04T12:23:22;148660.38;;;9.06;80.18
21877;BME280;11103;43.788;23.710;2023-02-04T12:25:48;148647.63;;;9.01;81.22
21877;BME280;11103;43.788;23.710;2023-02-04T12:28:15;148634.84;;;8.96;80.83
21877;BME280;11103;43.788;23.710;2023-02-04T12:30:40;148637.38;;;8.97;81.41
21877;BME280;11103;43.788;23.710;2023-02-04T12:33:06;148642.50;;;8.99;81.75
21877;BME280;11103;43.788;23.710;2023-02-04T12:35:32;148629.75;;;8.94;82.03
21877;BME280;11103;43.788;23.710;2023-02-04T12:37:57;148623.31;;;8.91;82.15
21877;BME280;11103;43.788;23.710;2023-02-04T12:40:23;148604.16;;;8.84;82.60
21877;BME280;11103;43.788;23.710;2023-02-04T12:42:48;148610.53;;;8.86;82.99
21877;BME280;11103;43.788;23.710;2023-02-04T12:45:15;148596.47;;;8.81;83.62
21877;BME280;11103;43.788;23.710;2023-02-04T12:47:41;148582.41;;;8.75;84.27
21877;BME280;11103;43.788;23.710;2023-02-04T12:50:07;148602.84;;;8.83;84.99
21877;BME280;11103;43.788;23.710;2023-02-04T12:52:33;148618.19;;;8.89;85.04
21877;BME280;11103;43.788;23.710;2023-02-04T12:55:01;148587.56;;;8.77;85.69
21877;BME280;11103;43.788;23.710;2023-02-04T12:57:32;148585.00;;;8.76;85.64